Woodinville, WA (98072)

11:11 AM PDT on August 04, 2015 (GMT -0700)
Cottage Lake Beach Club | | Change Station
CLOSE
Current Station
Personal Weather Station
Location: Woodinville, WA
Elevation: 276 ft
Nearby Weather Stations

Elev 276 ft 47.75 °N, 122.09 °W | Updated 13 seconds ago

Overcast
Overcast
68.7 °F
Feels Like 68.7 °F
N
1.0
Wind Variable Wind from West
Gusts 2.0 mph

Today
High -- | Low -- °F
--% Chance of Precip.
Yesterday
High -- | Low -- °F
Precip. -- in
5:49 AM 8:39 PM
Waning Gibbous, 75% visible
Pressure 30.02 in
Visibility 10.0 miles
Clouds Few 1800 ft
Dew Point 56 °F
Humidity 64%
Rainfall 0.00 in
Snow Depth Not available.
UV 6 out of 12
Pollen 4.40 out of 12
Air Quality Not available.
Flu Activity Not available.
METAR KPAE 041753Z AUTO 26009KT 10SM FEW018 17/12 A3002 RMK AO2 SLP164 T01720122 10183 20156 51002

More Conditions Fewer Conditions

Pressure 30.02 in
Visibility 10.0 miles
Clouds Few 1800 ft
Dew Point 56 °F
Humidity 64%
Rainfall 0.00 in
Snow Depth Not available.
UV 6 out of 12
Pollen 4.40 out of 12
Air Quality Not available.
Flu Activity Not available.
METAR KPAE 041753Z AUTO 26009KT 10SM FEW018 17/12 A3002 RMK AO2 SLP164 T01720122 10183 20156 51002

More Conditions Fewer Conditions

10-Day Weather Forecast

×

Almanac

Astronomy

Aug. 04, 2015 Rise Set
Actual Time
Civil Twilight
Nautical Twilight
Astronomical Twilight
Moon
Length of Visible Light
Length of Day
Tomorrow will be .
, % of the Moon is Illuminated

Today's Extremes

State Highs State Lows

Community

WunderPhotos

Upload Photos

1,843,935 photos uploaded!

WunderBlogs® & News

Nearby

Air Quality

  Air Quality AQ Index Pollutant
Not available.

Snow Depth

Station Depth Elevation

Earthquake Activity

City Distance Mag. Time & Date
Minimum magnitude displayed is 2.5.

Coastal Water Temperatures

Place Temperature

Stations

Nearby Weather Stations

Station Location Temp. Windchill Dew Point Humidity Wind Precip. Elev Updated Type